sensor_id;sensor_type;location;lat;lon;timestamp;temperature;humidity
13322;DHT22;6730;46.248;6.930;2023-12-20T00:01:00;6.10;99.90
13322;DHT22;6730;46.248;6.930;2023-12-20T00:03:25;5.50;99.90
13322;DHT22;6730;46.248;6.930;2023-12-20T00:05:51;5.10;99.90
13322;DHT22;6730;46.248;6.930;2023-12-20T00:08:17;5.00;99.90
13322;DHT22;6730;46.248;6.930;2023-12-20T00:10:46;4.90;99.90
13322;DHT22;6730;46.248;6.930;2023-12-20T00:13:11;4.20;99.90
13322;DHT22;6730;46.248;6.930;2023-12-20T00:15:37;4.30;99.90
13322;DHT22;6730;46.248;6.930;2023-12-20T00:18:03;4.50;99.90
13322;DHT22;6730;46.248;6.930;2023-12-20T00:20:29;4.90;99.90
13322;DHT22;6730;46.248;6.930;2023-12-20T00:22:56;5.40;99.90
13322;DHT22;6730;46.248;6.930;2023-12-20T00:25:23;5.50;99.90
13322;DHT22;6730;46.248;6.930;2023-12-20T00:27:49;5.50;99.90
13322;DHT22;6730;46.248;6.930;2023-12-20T00:30:14;5.40;99.90
13322;DHT22;6730;46.248;6.930;2023-12-20T00:32:40;5.30;99.90
13322;DHT22;6730;46.248;6.930;2023-12-20T00:35:12;5.30;99.90
13322;DHT22;6730;46.248;6.930;2023-12-20T00:37:37;5.20;99.90
13322;DHT22;6730;46.248;6.930;2023-12-20T00:40:03;5.30;99.90
13322;DHT22;6730;46.248;6.930;2023-12-20T00:42:29;5.10;99.90
13322;DHT22;6730;46.248;6.930;2023-12-20T00:44:55;5.40;99.90
13322;DHT22;6730;46.248;6.930;2023-12-20T00:47:20;5.70;99.90
13322;DHT22;6730;46.248;6.930;2023-12-20T00:49:47;5.70;99.90
13322;DHT22;6730;46.248;6.930;2023-12-20T00:52:13;5.10;99.90
13322;DHT22;6730;46.248;6.930;2023-12-20T00:54:39;4.40;99.90
13322;DHT22;6730;46.248;6.930;2023-12-20T00:57:05;4.00;99.90
13322;DHT22;6730;46.248;6.930;2023-12-20T00:59:30;3.90;99.90
13322;DHT22;6730;46.248;6.930;2023-12-20T01:01:56;4.20;99.90
13322;DHT22;6730;46.248;6.930;2023-12-20T01:04:22;4.60;99.90
13322;DHT22;6730;46.248;6.930;2023-12-20T01:06:47;4.60;99.90
13322;DHT22;6730;46.248;6.930;2023-12-20T01:09:13;4.40;99.90
13322;DHT22;6730;46.248;6.930;2023-12-20T01:11:39;4.50;99.90
13322;DHT22;6730;46.248;6.930;2023-12-20T01:14:05;5.00;99.90
13322;DHT22;6730;46.248;6.930;2023-12-20T01:16:31;5.20;99.90
13322;DHT22;6730;46.248;6.930;2023-12-20T01:18:56;4.70;99.90
13322;DHT22;6730;46.248;6.930;2023-12-20T01:21:22;4.60;99.90
13322;DHT22;6730;46.248;6.930;2023-12-20T01:23:47;5.00;99.90
13322;DHT22;6730;46.248;6.930;2023-12-20T01:26:14;5.30;99.90
13322;DHT22;6730;46.248;6.930;2023-12-20T01:28:40;5.60;99.90
13322;DHT22;6730;46.248;6.930;2023-12-20T01:31:06;5.70;99.90
13322;DHT22;6730;46.248;6.930;2023-12-20T01:33:31;5.60;99.90
13322;DHT22;6730;46.248;6.930;2023-12-20T01:35:57;5.60;99.90
13322;DHT22;6730;46.248;6.930;2023-12-20T01:38:22;6.00;99.90
13322;DHT22;6730;46.248;6.930;2023-12-20T01:40:48;5.70;99.90
13322;DHT22;6730;46.248;6.930;2023-12-20T01:43:14;5.40;99.90
13322;DHT22;6730;46.248;6.930;2023-12-20T01:45:40;5.00;99.90
13322;DHT22;6730;46.248;6.930;2023-12-20T01:48:06;4.90;99.90
13322;DHT22;6730;46.248;6.930;2023-12-20T01:50:36;4.80;99.90
13322;DHT22;6730;46.248;6.930;2023-12-20T01:53:02;4.90;99.90
13322;DHT22;6730;46.248;6.930;2023-12-20T01:55:31;4.80;99.90
13322;DHT22;6730;46.248;6.930;2023-12-20T01:57:58;4.90;99.90
13322;DHT22;6730;46.248;6.930;2023-12-20T02:00:25;4.80;99.90
13322;DHT22;6730;46.248;6.930;2023-12-20T02:02:53;4.80;99.90
13322;DHT22;6730;46.248;6.930;2023-12-20T02:05:21;5.00;99.90
13322;DHT22;6730;46.248;6.930;2023-12-20T02:07:48;5.20;99.90
13322;DHT22;6730;46.248;6.930;2023-12-20T02:10:13;5.20;99.90
13322;DHT22;6730;46.248;6.930;2023-12-20T02:12:40;4.90;99.90
13322;DHT22;6730;46.248;6.930;2023-12-20T02:15:06;4.90;99.90
13322;DHT22;6730;46.248;6.930;2023-12-20T02:17:32;5.00;99.90
13322;DHT22;6730;46.248;6.930;2023-12-20T02:19:58;4.70;99.90
13322;DHT22;6730;46.248;6.930;2023-12-20T02:22:23;4.60;99.90
13322;DHT22;6730;46.248;6.930;2023-12-20T02:24:49;4.80;99.90
13322;DHT22;6730;46.248;6.930;2023-12-20T02:27:15;5.20;99.90
13322;DHT22;6730;46.248;6.930;2023-12-20T02:29:43;5.50;99.90
13322;DHT22;6730;46.248;6.930;2023-12-20T02:32:08;5.80;99.90
13322;DHT22;6730;46.248;6.930;2023-12-20T02:34:34;5.20;99.90
13322;DHT22;6730;46.248;6.930;2023-12-20T02:37:00;5.00;99.90
13322;DHT22;6730;46.248;6.930;2023-12-20T02:39:26;4.70;99.90
13322;DHT22;6730;46.248;6.930;2023-12-20T02:41:52;4.50;99.90
13322;DHT22;6730;46.248;6.930;2023-12-20T02:44:17;4.30;99.90
13322;DHT22;6730;46.248;6.930;2023-12-20T02:46:43;4.40;99.90
13322;DHT22;6730;46.248;6.930;2023-12-20T02:49:09;4.50;99.90
13322;DHT22;6730;46.248;6.930;2023-12-20T02:51:34;4.50;99.90
13322;DHT22;6730;46.248;6.930;2023-12-20T02:54:00;4.50;99.90
13322;DHT22;6730;46.248;6.930;2023-12-20T02:56:25;4.90;99.90
13322;DHT22;6730;46.248;6.930;2023-12-20T02:58:51;5.10;99.90
13322;DHT22;6730;46.248;6.930;2023-12-20T03:01:17;5.00;99.90
13322;DHT22;6730;46.248;6.930;2023-12-20T03:03:42;4.40;99.90
13322;DHT22;6730;46.248;6.930;2023-12-20T03:06:08;4.60;99.90
13322;DHT22;6730;46.248;6.930;2023-12-20T03:08:33;4.80;99.90
13322;DHT22;6730;46.248;6.930;2023-12-20T03:10:59;5.10;99.90
13322;DHT22;6730;46.248;6.930;2023-12-20T03:13:25;5.60;99.90
13322;DHT22;6730;46.248;6.930;2023-12-20T03:15:51;5.80;99.90
13322;DHT22;6730;46.248;6.930;2023-12-20T03:18:17;5.70;99.90
13322;DHT22;6730;46.248;6.930;2023-12-20T03:20:43;5.60;99.90
13322;DHT22;6730;46.248;6.930;2023-12-20T03:23:09;5.90;99.90
13322;DHT22;6730;46.248;6.930;2023-12-20T03:25:35;5.90;99.90
13322;DHT22;6730;46.248;6.930;2023-12-20T03:28:00;5.80;99.90
13322;DHT22;6730;46.248;6.930;2023-12-20T03:30:26;5.70;99.90
13322;DHT22;6730;46.248;6.930;2023-12-20T03:32:51;5.70;99.90
13322;DHT22;6730;46.248;6.930;2023-12-20T03:35:17;5.60;99.90
13322;DHT22;6730;46.248;6.930;2023-12-20T03:37:43;5.30;99.90
13322;DHT22;6730;46.248;6.930;2023-12-20T03:40:09;5.00;99.90
13322;DHT22;6730;46.248;6.930;2023-12-20T03:42:35;4.50;99.90
13322;DHT22;6730;46.248;6.930;2023-12-20T03:45:00;4.40;99.90
13322;DHT22;6730;46.248;6.930;2023-12-20T03:47:26;4.10;99.90
13322;DHT22;6730;46.248;6.930;2023-12-20T03:49:52;4.30;99.90
13322;DHT22;6730;46.248;6.930;2023-12-20T03:52:18;4.70;99.90
13322;DHT22;6730;46.248;6.930;2023-12-20T03:54:44;5.10;99.90
13322;DHT22;6730;46.248;6.930;2023-12-20T03:57:09;5.10;99.90
13322;DHT22;6730;46.248;6.930;2023-12-20T03:59:37;5.00;99.90
13322;DHT22;6730;46.248;6.930;2023-12-20T04:02:03;4.90;99.90
13322;DHT22;6730;46.248;6.930;2023-12-20T04:04:28;4.90;99.90
13322;DHT22;6730;46.248;6.930;2023-12-20T04:06:54;4.80;99.90
13322;DHT22;6730;46.248;6.930;2023-12-20T04:09:20;4.80;99.90
13322;DHT22;6730;46.248;6.930;2023-12-20T04:11:45;5.00;99.90
13322;DHT22;6730;46.248;6.930;2023-12-20T04:14:11;5.00;99.90
13322;DHT22;6730;46.248;6.930;2023-12-20T04:16:37;5.10;99.90
13322;DHT22;6730;46.248;6.930;2023-12-20T04:19:02;5.30;99.90
13322;DHT22;6730;46.248;6.930;2023-12-20T04:21:28;5.60;99.90
13322;DHT22;6730;46.248;6.930;2023-12-20T04:23:54;5.30;99.90
13322;DHT22;6730;46.248;6.930;2023-12-20T04:26:19;5.00;99.90
13322;DHT22;6730;46.248;6.930;2023-12-20T04:28:45;4.70;99.90
13322;DHT22;6730;46.248;6.930;2023-12-20T04:31:11;4.50;99.90
13322;DHT22;6730;46.248;6.930;2023-12-20T04:33:36;4.70;99.90
13322;DHT22;6730;46.248;6.930;2023-12-20T04:36:02;5.00;99.90
13322;DHT22;6730;46.248;6.930;2023-12-20T04:38:28;4.90;99.90
13322;DHT22;6730;46.248;6.930;2023-12-20T04:40:54;4.80;99.90
13322;DHT22;6730;46.248;6.930;2023-12-20T04:43:19;4.80;99.90
13322;DHT22;6730;46.248;6.930;2023-12-20T04:45:45;5.00;99.90
13322;DHT22;6730;46.248;6.930;2023-12-20T04:48:11;5.10;99.90
13322;DHT22;6730;46.248;6.930;2023-12-20T04:50:37;5.40;99.90
13322;DHT22;6730;46.248;6.930;2023-12-20T04:53:03;5.40;99.90
13322;DHT22;6730;46.248;6.930;2023-12-20T04:55:28;5.50;99.90
13322;DHT22;6730;46.248;6.930;2023-12-20T04:57:54;5.80;99.90
13322;DHT22;6730;46.248;6.930;2023-12-20T05:00:20;5.90;99.90
13322;DHT22;6730;46.248;6.930;2023-12-20T05:02:46;5.80;99.90
13322;DHT22;6730;46.248;6.930;2023-12-20T05:05:11;5.80;99.90
13322;DHT22;6730;46.248;6.930;2023-12-20T05:07:37;5.40;99.90
13322;DHT22;6730;46.248;6.930;2023-12-20T05:10:03;4.70;99.90
13322;DHT22;6730;46.248;6.930;2023-12-20T05:12:33;4.40;99.90
13322;DHT22;6730;46.248;6.930;2023-12-20T05:14:59;4.60;99.90
13322;DHT22;6730;46.248;6.930;2023-12-20T05:17:25;4.90;99.90
13322;DHT22;6730;46.248;6.930;2023-12-20T05:19:51;5.00;99.90
13322;DHT22;6730;46.248;6.930;2023-12-20T05:22:17;5.20;99.90
13322;DHT22;6730;46.248;6.930;2023-12-20T05:24:43;5.10;99.90
13322;DHT22;6730;46.248;6.930;2023-12-20T05:27:09;5.40;99.90
13322;DHT22;6730;46.248;6.930;2023-12-20T05:29:35;5.30;99.90
13322;DHT22;6730;46.248;6.930;2023-12-20T05:32:00;4.70;99.90
13322;DHT22;6730;46.248;6.930;2023-12-20T05:34:26;4.30;99.90
13322;DHT22;6730;46.248;6.930;2023-12-20T05:36:52;4.10;99.90
13322;DHT22;6730;46.248;6.930;2023-12-20T05:39:17;4.40;99.90
13322;DHT22;6730;46.248;6.930;2023-12-20T05:41:43;4.70;99.90
13322;DHT22;6730;46.248;6.930;2023-12-20T05:44:09;4.80;99.90
13322;DHT22;6730;46.248;6.930;2023-12-20T05:46:35;5.00;99.90
13322;DHT22;6730;46.248;6.930;2023-12-20T05:49:01;5.10;99.90
13322;DHT22;6730;46.248;6.930;2023-12-20T05:51:27;4.70;99.90
13322;DHT22;6730;46.248;6.930;2023-12-20T05:53:53;4.20;99.90
13322;DHT22;6730;46.248;6.930;2023-12-20T05:56:18;4.40;99.90
13322;DHT22;6730;46.248;6.930;2023-12-20T05:58:44;4.80;99.90
13322;DHT22;6730;46.248;6.930;2023-12-20T06:01:10;5.00;99.90
13322;DHT22;6730;46.248;6.930;2023-12-20T06:03:35;5.20;99.90
13322;DHT22;6730;46.248;6.930;2023-12-20T06:06:06;5.60;99.90
13322;DHT22;6730;46.248;6.930;2023-12-20T06:08:32;5.60;99.90
13322;DHT22;6730;46.248;6.930;2023-12-20T06:10:58;5.60;99.90
13322;DHT22;6730;46.248;6.930;2023-12-20T06:13:23;5.70;99.90
13322;DHT22;6730;46.248;6.930;2023-12-20T06:15:49;5.80;99.90
13322;DHT22;6730;46.248;6.930;2023-12-20T06:18:14;5.80;99.90
13322;DHT22;6730;46.248;6.930;2023-12-20T06:20:40;5.70;99.90
13322;DHT22;6730;46.248;6.930;2023-12-20T06:23:06;5.60;99.90
13322;DHT22;6730;46.248;6.930;2023-12-20T06:25:31;5.70;99.90
13322;DHT22;6730;46.248;6.930;2023-12-20T06:27:57;6.00;99.90
13322;DHT22;6730;46.248;6.930;2023-12-20T06:30:23;6.10;99.90
13322;DHT22;6730;46.248;6.930;2023-12-20T06:32:50;5.80;99.90
13322;DHT22;6730;46.248;6.930;2023-12-20T06:35:16;5.40;99.90
13322;DHT22;6730;46.248;6.930;2023-12-20T06:37:41;5.60;99.90
13322;DHT22;6730;46.248;6.930;2023-12-20T06:40:09;5.80;99.90
13322;DHT22;6730;46.248;6.930;2023-12-20T06:42:35;5.80;99.90
13322;DHT22;6730;46.248;6.930;2023-12-20T06:45:01;5.80;99.90
13322;DHT22;6730;46.248;6.930;2023-12-20T06:47:27;5.30;99.90
13322;DHT22;6730;46.248;6.930;2023-12-20T06:49:53;5.40;99.90
13322;DHT22;6730;46.248;6.930;2023-12-20T06:52:18;5.60;99.90
13322;DHT22;6730;46.248;6.930;2023-12-20T06:54:44;5.90;99.90
13322;DHT22;6730;46.248;6.930;2023-12-20T06:57:10;6.20;99.90
13322;DHT22;6730;46.248;6.930;2023-12-20T06:59:42;6.00;99.90
13322;DHT22;6730;46.248;6.930;2023-12-20T07:02:08;5.90;99.90
13322;DHT22;6730;46.248;6.930;2023-12-20T07:04:38;5.90;99.90
13322;DHT22;6730;46.248;6.930;2023-12-20T07:07:04;5.90;99.90
13322;DHT22;6730;46.248;6.930;2023-12-20T07:09:30;5.90;99.90
13322;DHT22;6730;46.248;6.930;2023-12-20T07:11:55;5.90;99.90
13322;DHT22;6730;46.248;6.930;2023-12-20T07:14:21;5.90;99.90
13322;DHT22;6730;46.248;6.930;2023-12-20T07:16:47;5.80;99.90
13322;DHT22;6730;46.248;6.930;2023-12-20T07:19:12;5.80;99.90
13322;DHT22;6730;46.248;6.930;2023-12-20T07:21:38;5.90;99.90
13322;DHT22;6730;46.248;6.930;2023-12-20T07:24:04;5.90;99.90
13322;DHT22;6730;46.248;6.930;2023-12-20T07:26:30;6.00;99.90
13322;DHT22;6730;46.248;6.930;2023-12-20T07:28:55;6.10;99.90
13322;DHT22;6730;46.248;6.930;2023-12-20T07:31:21;6.20;99.90
13322;DHT22;6730;46.248;6.930;2023-12-20T07:33:47;6.10;99.90
13322;DHT22;6730;46.248;6.930;2023-12-20T07:36:13;5.90;99.90
13322;DHT22;6730;46.248;6.930;2023-12-20T07:38:38;6.00;99.90
13322;DHT22;6730;46.248;6.930;2023-12-20T07:41:04;5.70;99.90
13322;DHT22;6730;46.248;6.930;2023-12-20T07:43:30;5.50;99.90
13322;DHT22;6730;46.248;6.930;2023-12-20T07:45:55;5.60;99.90
13322;DHT22;6730;46.248;6.930;2023-12-20T07:48:21;5.90;99.90
13322;DHT22;6730;46.248;6.930;2023-12-20T07:50:47;6.20;99.90
13322;DHT22;6730;46.248;6.930;2023-12-20T07:53:13;5.90;99.90
13322;DHT22;6730;46.248;6.930;2023-12-20T07:55:40;6.10;99.90
13322;DHT22;6730;46.248;6.930;2023-12-20T07:58:05;6.20;99.90
13322;DHT22;6730;46.248;6.930;2023-12-20T08:00:31;6.20;99.90
13322;DHT22;6730;46.248;6.930;2023-12-20T08:02:57;6.00;99.90
13322;DHT22;6730;46.248;6.930;2023-12-20T08:05:22;5.90;99.90
13322;DHT22;6730;46.248;6.930;2023-12-20T08:07:48;5.80;99.90
13322;DHT22;6730;46.248;6.930;2023-12-20T08:10:14;5.90;99.90
13322;DHT22;6730;46.248;6.930;2023-12-20T08:12:39;5.90;99.90
13322;DHT22;6730;46.248;6.930;2023-12-20T08:15:05;6.00;99.90
13322;DHT22;6730;46.248;6.930;2023-12-20T08:17:31;5.90;99.90
13322;DHT22;6730;46.248;6.930;2023-12-20T08:19:57;5.90;99.90
13322;DHT22;6730;46.248;6.930;2023-12-20T08:22:23;6.20;99.90
13322;DHT22;6730;46.248;6.930;2023-12-20T08:24:49;6.00;99.90
13322;DHT22;6730;46.248;6.930;2023-12-20T08:27:15;6.10;99.90
13322;DHT22;6730;46.248;6.930;2023-12-20T08:29:40;6.20;99.90
13322;DHT22;6730;46.248;6.930;2023-12-20T08:32:06;6.40;99.90
13322;DHT22;6730;46.248;6.930;2023-12-20T08:34:32;6.50;99.90
13322;DHT22;6730;46.248;6.930;2023-12-20T08:36:57;6.60;99.90
13322;DHT22;6730;46.248;6.930;2023-12-20T08:39:23;6.50;99.90
13322;DHT22;6730;46.248;6.930;2023-12-20T08:41:49;6.10;99.90
13322;DHT22;6730;46.248;6.930;2023-12-20T08:44:14;6.10;99.90
13322;DHT22;6730;46.248;6.930;2023-12-20T08:46:40;6.20;99.90
13322;DHT22;6730;46.248;6.930;2023-12-20T08:49:06;6.10;99.90
13322;DHT22;6730;46.248;6.930;2023-12-20T08:51:32;6.00;99.90
13322;DHT22;6730;46.248;6.930;2023-12-20T08:53:59;6.30;99.90
13322;DHT22;6730;46.248;6.930;2023-12-20T08:56:24;6.30;99.90
13322;DHT22;6730;46.248;6.930;2023-12-20T08:58:50;6.30;99.90
13322;DHT22;6730;46.248;6.930;2023-12-20T09:01:15;6.40;99.90
13322;DHT22;6730;46.248;6.930;2023-12-20T09:03:41;6.50;99.90
13322;DHT22;6730;46.248;6.930;2023-12-20T09:06:07;6.40;99.90
13322;DHT22;6730;46.248;6.930;2023-12-20T09:08:32;6.50;99.90
13322;DHT22;6730;46.248;6.930;2023-12-20T09:10:59;6.50;99.90
13322;DHT22;6730;46.248;6.930;2023-12-20T09:13:26;6.50;99.90
13322;DHT22;6730;46.248;6.930;2023-12-20T09:15:55;6.50;99.90
13322;DHT22;6730;46.248;6.930;2023-12-20T09:18:20;6.40;99.90
13322;DHT22;6730;46.248;6.930;2023-12-20T09:20:46;6.70;99.90
13322;DHT22;6730;46.248;6.930;2023-12-20T09:23:12;7.00;99.90
13322;DHT22;6730;46.248;6.930;2023-12-20T09:25:37;7.00;99.90
13322;DHT22;6730;46.248;6.930;2023-12-20T09:28:03;7.00;99.90
13322;DHT22;6730;46.248;6.930;2023-12-20T09:30:29;7.10;99.90
13322;DHT22;6730;46.248;6.930;2023-12-20T09:32:55;7.20;99.90
13322;DHT22;6730;46.248;6.930;2023-12-20T09:35:21;7.00;99.90
13322;DHT22;6730;46.248;6.930;2023-12-20T09:37:47;6.80;99.90
13322;DHT22;6730;46.248;6.930;2023-12-20T09:40:13;6.90;99.90
13322;DHT22;6730;46.248;6.930;2023-12-20T09:42:57;7.10;99.90
13322;DHT22;6730;46.248;6.930;2023-12-20T09:45:23;7.10;99.90
13322;DHT22;6730;46.248;6.930;2023-12-20T09:47:53;6.80;99.90
13322;DHT22;6730;46.248;6.930;2023-12-20T09:50:20;6.30;99.90
13322;DHT22;6730;46.248;6.930;2023-12-20T09:52:50;6.00;99.90
13322;DHT22;6730;46.248;6.930;2023-12-20T09:55:18;5.90;99.90
13322;DHT22;6730;46.248;6.930;2023-12-20T09:57:45;6.00;99.90
13322;DHT22;6730;46.248;6.930;2023-12-20T10:00:12;6.00;99.90
13322;DHT22;6730;46.248;6.930;2023-12-20T10:02:42;6.00;99.90
13322;DHT22;6730;46.248;6.930;2023-12-20T10:05:16;6.30;99.90
13322;DHT22;6730;46.248;6.930;2023-12-20T10:07:42;6.30;99.90
13322;DHT22;6730;46.248;6.930;2023-12-20T10:10:08;6.10;99.90
13322;DHT22;6730;46.248;6.930;2023-12-20T10:12:34;6.10;99.90
13322;DHT22;6730;46.248;6.930;2023-12-20T10:15:00;6.20;99.90
13322;DHT22;6730;46.248;6.930;2023-12-20T10:17:27;6.40;99.90
13322;DHT22;6730;46.248;6.930;2023-12-20T10:19:54;6.60;99.90
13322;DHT22;6730;46.248;6.930;2023-12-20T10:22:21;6.60;99.90
13322;DHT22;6730;46.248;6.930;2023-12-20T10:24:46;6.60;99.90
13322;DHT22;6730;46.248;6.930;2023-12-20T10:27:12;6.70;99.90
13322;DHT22;6730;46.248;6.930;2023-12-20T10:29:38;6.70;99.90
13322;DHT22;6730;46.248;6.930;2023-12-20T10:32:26;6.70;99.90
13322;DHT22;6730;46.248;6.930;2023-12-20T10:34:54;6.50;99.90
13322;DHT22;6730;46.248;6.930;2023-12-20T10:37:20;6.50;99.90
13322;DHT22;6730;46.248;6.930;2023-12-20T10:39:53;6.20;99.90
13322;DHT22;6730;46.248;6.930;2023-12-20T10:42:26;6.10;99.90
13322;DHT22;6730;46.248;6.930;2023-12-20T10:44:52;6.10;99.90
13322;DHT22;6730;46.248;6.930;2023-12-20T10:47:22;6.10;99.90
13322;DHT22;6730;46.248;6.930;2023-12-20T10:49:48;5.90;99.90
13322;DHT22;6730;46.248;6.930;2023-12-20T10:52:16;5.70;99.90
13322;DHT22;6730;46.248;6.930;2023-12-20T10:54:43;5.70;99.90
13322;DHT22;6730;46.248;6.930;2023-12-20T10:57:09;5.80;99.90
13322;DHT22;6730;46.248;6.930;2023-12-20T10:59:39;6.10;99.90
13322;DHT22;6730;46.248;6.930;2023-12-20T11:02:05;6.60;99.90
13322;DHT22;6730;46.248;6.930;2023-12-20T11:04:59;7.00;99.90
13322;DHT22;6730;46.248;6.930;2023-12-20T11:07:48;6.90;99.90
13322;DHT22;6730;46.248;6.930;2023-12-20T11:12:49;6.00;99.90
13322;DHT22;6730;46.248;6.930;2023-12-20T11:15:17;5.80;99.90
13322;DHT22;6730;46.248;6.930;2023-12-20T11:17:45;5.60;99.90
13322;DHT22;6730;46.248;6.930;2023-12-20T11:20:12;5.50;99.90
13322;DHT22;6730;46.248;6.930;2023-12-20T11:22:40;5.40;99.90
13322;DHT22;6730;46.248;6.930;2023-12-20T11:25:16;5.50;99.90
13322;DHT22;6730;46.248;6.930;2023-12-20T11:27:43;5.70;99.90
13322;DHT22;6730;46.248;6.930;2023-12-20T11:30:09;5.70;99.90
13322;DHT22;6730;46.248;6.930;2023-12-20T11:32:36;5.80;99.90
13322;DHT22;6730;46.248;6.930;2023-12-20T11:37:38;5.90;99.90
13322;DHT22;6730;46.248;6.930;2023-12-20T11:40:11;6.10;99.90
13322;DHT22;6730;46.248;6.930;2023-12-20T11:42:50;6.10;99.90
13322;DHT22;6730;46.248;6.930;2023-12-20T11:45:18;5.90;99.90
13322;DHT22;6730;46.248;6.930;2023-12-20T11:47:48;5.80;99.90
13322;DHT22;6730;46.248;6.930;2023-12-20T11:50:17;5.50;99.90
13322;DHT22;6730;46.248;6.930;2023-12-20T11:52:43;5.40;99.90
13322;DHT22;6730;46.248;6.930;2023-12-20T11:55:09;5.40;99.90
13322;DHT22;6730;46.248;6.930;2023-12-20T11:57:36;5.40;99.90
13322;DHT22;6730;46.248;6.930;2023-12-20T12:00:02;5.30;99.90
13322;DHT22;6730;46.248;6.930;2023-12-20T12:02:28;5.20;99.90
13322;DHT22;6730;46.248;6.930;2023-12-20T12:04:54;5.30;99.90
13322;DHT22;6730;46.248;6.930;2023-12-20T12:07:21;5.30;99.90
13322;DHT22;6730;46.248;6.930;2023-12-20T12:09:47;5.30;99.90
13322;DHT22;6730;46.248;6.930;2023-12-20T12:12:13;5.50;99.90
13322;DHT22;6730;46.248;6.930;2023-12-20T12:14:39;5.60;99.90
13322;DHT22;6730;46.248;6.930;2023-12-20T12:17:14;5.80;99.90
13322;DHT22;6730;46.248;6.930;2023-12-20T12:19:49;5.80;99.90
13322;DHT22;6730;46.248;6.930;2023-12-20T12:22:15;5.80;99.90
13322;DHT22;6730;46.248;6.930;2023-12-20T12:24:43;5.80;99.90
13322;DHT22;6730;46.248;6.930;2023-12-20T12:27:10;5.70;99.90
13322;DHT22;6730;46.248;6.930;2023-12-20T12:29:36;5.50;99.90
13322;DHT22;6730;46.248;6.930;2023-12-20T12:32:06;5.30;99.90
13322;DHT22;6730;46.248;6.930;2023-12-20T12:34:33;5.30;99.90
13322;DHT22;6730;46.248;6.930;2023-12-20T12:37:00;5.40;99.90
13322;DHT22;6730;46.248;6.930;2023-12-20T12:39:25;5.40;99.90
13322;DHT22;6730;46.248;6.930;2023-12-20T12:41:52;5.20;99.90
13322;DHT22;6730;46.248;6.930;2023-12-20T12:44:17;5.10;99.90
13322;DHT22;6730;46.248;6.930;2023-12-20T12:46:46;5.00;99.90
13322;DHT22;6730;46.248;6.930;2023-12-20T12:49:13;5.00;99.90
13322;DHT22;6730;46.248;6.930;2023-12-20T12:51:38;5.00;99.90
13322;DHT22;6730;46.248;6.930;2023-12-20T12:54:04;5.10;99.90
13322;DHT22;6730;46.248;6.930;2023-12-20T12:56:30;5.10;99.90
13322;DHT22;6730;46.248;6.930;2023-12-20T12:58:56;5.10;99.90
13322;DHT22;6730;46.248;6.930;2023-12-20T13:01:21;5.20;99.90
13322;DHT22;6730;46.248;6.930;2023-12-20T13:03:47;5.40;99.90
13322;DHT22;6730;46.248;6.930;2023-12-20T13:06:13;5.40;99.90
13322;DHT22;6730;46.248;6.930;2023-12-20T13:08:39;5.50;99.90
13322;DHT22;6730;46.248;6.930;2023-12-20T13:11:05;5.30;99.90
13322;DHT22;6730;46.248;6.930;2023-12-20T13:13:31;5.30;99.90
13322;DHT22;6730;46.248;6.930;2023-12-20T13:15:57;5.40;99.90
13322;DHT22;6730;46.248;6.930;2023-12-20T13:18:23;5.40;99.90
13322;DHT22;6730;46.248;6.930;2023-12-20T13:20:48;5.50;99.90
13322;DHT22;6730;46.248;6.930;2023-12-20T13:23:15;5.40;99.90
13322;DHT22;6730;46.248;6.930;2023-12-20T13:25:41;5.60;99.90
13322;DHT22;6730;46.248;6.930;2023-12-20T13:28:07;5.60;99.90
13322;DHT22;6730;46.248;6.930;2023-12-20T13:30:34;5.60;99.90
13322;DHT22;6730;46.248;6.930;2023-12-20T13:32:59;5.80;99.90
13322;DHT22;6730;46.248;6.930;2023-12-20T13:35:25;5.70;99.90
13322;DHT22;6730;46.248;6.930;2023-12-20T13:37:51;5.70;99.90
13322;DHT22;6730;46.248;6.930;2023-12-20T13:40:17;5.70;99.90
13322;DHT22;6730;46.248;6.930;2023-12-20T13:42:43;5.70;99.90
13322;DHT22;6730;46.248;6.930;2023-12-20T13:45:09;5.70;99.90
13322;DHT22;6730;46.248;6.930;2023-12-20T13:47:35;5.70;99.90
13322;DHT22;6730;46.248;6.930;2023-12-20T13:50:00;5.80;99.90
13322;DHT22;6730;46.248;6.930;2023-12-20T13:52:26;5.70;99.90
13322;DHT22;6730;46.248;6.930;2023-12-20T13:54:52;6.00;99.90
13322;DHT22;6730;46.248;6.930;2023-12-20T13:57:17;6.00;99.90
13322;DHT22;6730;46.248;6.930;2023-12-20T13:59:43;6.00;99.90
13322;DHT22;6730;46.248;6.930;2023-12-20T14:02:09;5.80;99.90
13322;DHT22;6730;46.248;6.930;2023-12-20T14:04:35;5.70;99.90
13322;DHT22;6730;46.248;6.930;2023-12-20T14:07:01;5.60;99.90
13322;DHT22;6730;46.248;6.930;2023-12-20T14:09:26;5.40;99.90
13322;DHT22;6730;46.248;6.930;2023-12-20T14:11:52;5.40;99.90
13322;DHT22;6730;46.248;6.930;2023-12-20T14:14:18;5.30;99.90
13322;DHT22;6730;46.248;6.930;2023-12-20T14:16:43;5.10;99.90
13322;DHT22;6730;46.248;6.930;2023-12-20T14:19:11;5.10;99.90
13322;DHT22;6730;46.248;6.930;2023-12-20T14:21:36;5.20;99.90
13322;DHT22;6730;46.248;6.930;2023-12-20T14:24:02;5.20;99.90
13322;DHT22;6730;46.248;6.930;2023-12-20T14:26:29;5.20;99.90
13322;DHT22;6730;46.248;6.930;2023-12-20T14:28:55;5.30;99.90
13322;DHT22;6730;46.248;6.930;2023-12-20T14:31:21;5.40;99.90
13322;DHT22;6730;46.248;6.930;2023-12-20T14:33:48;5.40;99.90
13322;DHT22;6730;46.248;6.930;2023-12-20T14:36:16;5.50;99.90
13322;DHT22;6730;46.248;6.930;2023-12-20T14:38:43;5.50;99.90
13322;DHT22;6730;46.248;6.930;2023-12-20T14:41:09;5.80;99.90
13322;DHT22;6730;46.248;6.930;2023-12-20T14:43:35;5.90;99.90
13322;DHT22;6730;46.248;6.930;2023-12-20T14:46:01;5.90;99.90
13322;DHT22;6730;46.248;6.930;2023-12-20T14:48:27;5.80;99.90
13322;DHT22;6730;46.248;6.930;2023-12-20T14:50:53;5.80;99.90
13322;DHT22;6730;46.248;6.930;2023-12-20T14:53:19;5.80;99.90
13322;DHT22;6730;46.248;6.930;2023-12-20T14:55:45;5.80;99.90
13322;DHT22;6730;46.248;6.930;2023-12-20T14:58:12;5.70;99.90
13322;DHT22;6730;46.248;6.930;2023-12-20T15:00:38;5.60;99.90
13322;DHT22;6730;46.248;6.930;2023-12-20T15:03:04;5.60;99.90
13322;DHT22;6730;46.248;6.930;2023-12-20T15:05:31;5.50;99.90
13322;DHT22;6730;46.248;6.930;2023-12-20T15:07:57;5.50;99.90
13322;DHT22;6730;46.248;6.930;2023-12-20T15:10:22;5.60;99.90
13322;DHT22;6730;46.248;6.930;2023-12-20T15:12:48;5.50;99.90
13322;DHT22;6730;46.248;6.930;2023-12-20T15:15:14;5.60;99.90
13322;DHT22;6730;46.248;6.930;2023-12-20T15:17:40;5.50;99.90
13322;DHT22;6730;46.248;6.930;2023-12-20T15:20:06;5.60;99.90
13322;DHT22;6730;46.248;6.930;2023-12-20T15:22:34;5.70;99.90
13322;DHT22;6730;46.248;6.930;2023-12-20T15:25:00;5.70;99.90
13322;DHT22;6730;46.248;6.930;2023-12-20T15:27:27;5.80;99.90
13322;DHT22;6730;46.248;6.930;2023-12-20T15:29:52;5.70;99.90
13322;DHT22;6730;46.248;6.930;2023-12-20T15:32:18;5.70;99.90
13322;DHT22;6730;46.248;6.930;2023-12-20T15:34:44;5.50;99.90
13322;DHT22;6730;46.248;6.930;2023-12-20T15:37:10;5.30;99.90
13322;DHT22;6730;46.248;6.930;2023-12-20T15:39:36;5.30;99.90
13322;DHT22;6730;46.248;6.930;2023-12-20T15:42:02;5.30;99.90
13322;DHT22;6730;46.248;6.930;2023-12-20T15:44:28;5.40;99.90
13322;DHT22;6730;46.248;6.930;2023-12-20T15:46:54;5.40;99.90
13322;DHT22;6730;46.248;6.930;2023-12-20T15:49:19;5.40;99.90
13322;DHT22;6730;46.248;6.930;2023-12-20T15:51:45;5.10;99.90
13322;DHT22;6730;46.248;6.930;2023-12-20T15:54:11;5.10;99.90
13322;DHT22;6730;46.248;6.930;2023-12-20T15:56:37;5.30;99.90
13322;DHT22;6730;46.248;6.930;2023-12-20T15:59:03;5.30;99.90
13322;DHT22;6730;46.248;6.930;2023-12-20T16:01:32;5.60;99.90